createdAt,value
2022-11-07T00:00:03.378Z,974.69
2022-11-07T00:01:03.328Z,974.71
2022-11-07T00:02:03.485Z,974.69
2022-11-07T00:03:03.588Z,974.60
2022-11-07T00:04:03.451Z,974.69
2022-11-07T00:05:03.425Z,974.77
2022-11-07T00:06:03.452Z,974.72
2022-11-07T00:07:03.515Z,974.72
2022-11-07T00:08:03.480Z,974.72
2022-11-07T00:09:04.205Z,974.72
2022-11-07T00:10:03.612Z,974.60
2022-11-07T00:11:03.761Z,974.66
2022-11-07T00:12:03.033Z,974.89
2022-11-07T00:13:03.050Z,974.75
2022-11-07T00:14:03.095Z,974.78
2022-11-07T00:15:03.212Z,974.75
2022-11-07T00:16:03.271Z,974.78
2022-11-07T00:17:03.320Z,974.75
2022-11-07T00:18:03.268Z,974.69
2022-11-07T00:19:03.408Z,974.69
2022-11-07T00:20:03.405Z,974.75
2022-11-07T00:21:03.486Z,974.89
2022-11-07T00:22:03.463Z,974.81
2022-11-07T00:23:03.495Z,974.78
2022-11-07T00:24:03.415Z,974.70
2022-11-07T00:25:03.607Z,974.70
2022-11-07T00:26:03.644Z,974.73
2022-11-07T00:27:03.592Z,974.75
2022-11-07T00:28:03.570Z,974.70
2022-11-07T00:29:03.572Z,974.70
2022-11-07T00:30:03.496Z,974.59
2022-11-07T00:31:03.463Z,974.61
2022-11-07T00:32:03.472Z,974.67
2022-11-07T00:33:03.557Z,974.59
2022-11-07T00:34:03.444Z,974.64
2022-11-07T00:35:03.488Z,974.59
2022-11-07T00:36:03.420Z,974.65
2022-11-07T00:37:03.602Z,974.62
2022-11-07T00:38:03.768Z,974.53
2022-11-07T00:39:03.678Z,974.70
2022-11-07T00:40:03.773Z,974.62
2022-11-07T00:41:03.839Z,974.71
2022-11-07T00:42:03.952Z,974.68
2022-11-07T00:43:02.983Z,974.59
2022-11-07T00:44:02.975Z,974.76
2022-11-07T00:45:03.199Z,974.82
2022-11-07T00:46:03.212Z,974.82
2022-11-07T00:47:03.535Z,974.68
2022-11-07T00:48:03.614Z,974.59
2022-11-07T00:49:03.793Z,974.65
2022-11-07T00:50:03.902Z,974.60
2022-11-07T00:51:03.898Z,974.57
2022-11-07T00:52:03.790Z,974.62
2022-11-07T00:53:03.101Z,974.68
2022-11-07T00:54:03.171Z,974.51
2022-11-07T00:55:03.176Z,974.71
2022-11-07T00:56:03.203Z,974.54
2022-11-07T00:57:03.219Z,974.65
2022-11-07T00:58:03.273Z,974.60
2022-11-07T00:59:03.410Z,974.63
2022-11-07T01:00:03.388Z,974.71
2022-11-07T01:01:03.393Z,974.63
2022-11-07T01:02:03.724Z,974.57
2022-11-07T01:03:03.533Z,974.77
2022-11-07T01:04:03.715Z,974.68
2022-11-07T01:05:03.767Z,974.68
2022-11-07T01:06:03.902Z,974.83
2022-11-07T01:07:03.844Z,974.71
2022-11-07T01:08:02.953Z,974.66
2022-11-07T01:09:03.083Z,974.77
2022-11-07T01:10:03.326Z,974.71
2022-11-07T01:11:03.246Z,974.69
2022-11-07T01:12:03.444Z,974.77
2022-11-07T01:13:03.493Z,974.83
2022-11-07T01:14:03.428Z,974.69
2022-11-07T01:15:03.583Z,974.74
2022-11-07T01:16:03.574Z,974.60
2022-11-07T01:17:03.776Z,974.66
2022-11-07T01:18:03.742Z,974.69
2022-11-07T01:19:03.892Z,974.69
2022-11-07T01:20:03.829Z,974.66
2022-11-07T01:21:03.888Z,974.80
2022-11-07T01:22:02.933Z,974.63
2022-11-07T01:23:03.015Z,974.72
2022-11-07T01:24:03.160Z,974.66
2022-11-07T01:25:03.197Z,974.60
2022-11-07T01:26:03.183Z,974.58
2022-11-07T01:27:03.284Z,974.66
2022-11-07T01:28:03.368Z,974.52
2022-11-07T01:29:03.362Z,974.41
2022-11-07T01:30:03.515Z,974.46
2022-11-07T01:31:03.481Z,974.43
2022-11-07T01:32:03.526Z,974.58
2022-11-07T01:33:03.667Z,974.63
2022-11-07T01:34:03.659Z,974.58
2022-11-07T01:35:03.572Z,974.55
2022-11-07T01:36:06.530Z,974.63
2022-11-07T01:37:03.532Z,974.52
2022-11-07T01:38:03.613Z,974.55
2022-11-07T01:39:03.655Z,974.55
2022-11-07T01:40:03.899Z,974.60
2022-11-07T01:41:03.864Z,974.69
2022-11-07T01:42:03.853Z,974.80
2022-11-07T01:43:03.890Z,974.75
2022-11-07T01:44:02.920Z,974.63
2022-11-07T01:45:03.020Z,974.58
2022-11-07T01:46:03.033Z,974.63
2022-11-07T01:47:03.116Z,974.60
2022-11-07T01:48:03.041Z,974.60
2022-11-07T01:49:03.178Z,974.43
2022-11-07T01:50:03.132Z,974.55
2022-11-07T01:51:03.231Z,974.41
2022-11-07T01:52:03.253Z,974.41
2022-11-07T01:53:03.348Z,974.43
2022-11-07T01:54:03.292Z,974.52
2022-11-07T01:55:03.453Z,974.55
2022-11-07T01:56:03.398Z,974.52
2022-11-07T01:57:03.447Z,974.49
2022-11-07T01:58:03.468Z,974.46
2022-11-07T01:59:03.586Z,974.41
2022-11-07T02:00:03.508Z,974.55
2022-11-07T02:01:03.688Z,974.49
2022-11-07T02:02:03.899Z,974.41
2022-11-07T02:03:03.816Z,974.38
2022-11-07T02:04:03.667Z,974.43
2022-11-07T02:05:03.624Z,974.49
2022-11-07T02:06:03.625Z,974.41
2022-11-07T02:07:03.776Z,974.35
2022-11-07T02:08:03.801Z,974.55
2022-11-07T02:09:03.903Z,974.43
2022-11-07T02:10:02.977Z,974.60
2022-11-07T02:11:03.035Z,974.63
2022-11-07T02:12:03.133Z,974.60
2022-11-07T02:13:03.083Z,974.54
2022-11-07T02:14:03.146Z,974.57
2022-11-07T02:15:03.236Z,974.63
2022-11-07T02:16:03.235Z,974.54
2022-11-07T02:17:03.371Z,974.62
2022-11-07T02:18:03.427Z,974.57
2022-11-07T02:19:03.568Z,974.62
2022-11-07T02:20:03.624Z,974.54
2022-11-07T02:21:03.743Z,974.42
2022-11-07T02:22:03.733Z,974.45
2022-11-07T02:23:03.825Z,974.51
2022-11-07T02:24:03.753Z,974.59
2022-11-07T02:25:03.873Z,974.59
2022-11-07T02:26:03.888Z,974.45
2022-11-07T02:27:02.996Z,974.48
2022-11-07T02:28:02.907Z,974.62
2022-11-07T02:29:03.067Z,974.68
2022-11-07T02:30:03.125Z,974.65
2022-11-07T02:31:03.103Z,974.65
2022-11-07T02:32:03.296Z,974.76
2022-11-07T02:33:03.339Z,974.68
2022-11-07T02:34:03.257Z,974.62
2022-11-07T02:35:03.319Z,974.59
2022-11-07T02:36:03.451Z,974.73
2022-11-07T02:37:03.440Z,974.76
2022-11-07T02:38:03.599Z,974.67
2022-11-07T02:39:03.658Z,974.87
2022-11-07T02:40:03.717Z,974.84
2022-11-07T02:41:03.658Z,974.95
2022-11-07T02:42:03.745Z,974.93
2022-11-07T02:43:02.917Z,975.03
2022-11-07T02:44:03.076Z,974.93
2022-11-07T02:45:03.047Z,975.14
2022-11-07T02:46:03.031Z,975.03
2022-11-07T02:47:03.115Z,975.09
2022-11-07T02:48:03.090Z,975.14
2022-11-07T02:49:03.137Z,975.03
2022-11-07T02:50:03.263Z,974.97
2022-11-07T02:51:03.434Z,974.97
2022-11-07T02:52:03.333Z,975.05
2022-11-07T02:53:03.359Z,975.00
2022-11-07T02:54:03.470Z,975.03
2022-11-07T02:55:03.501Z,975.05
2022-11-07T02:56:03.569Z,974.97
2022-11-07T02:57:03.589Z,975.00
2022-11-07T02:58:03.662Z,975.03
2022-11-07T02:59:03.741Z,974.95
2022-11-07T03:00:03.747Z,974.97
2022-11-07T03:01:03.718Z,974.97
2022-11-07T03:02:04.041Z,975.05
2022-11-07T03:03:03.870Z,974.95
2022-11-07T03:04:02.977Z,974.97
2022-11-07T03:05:02.932Z,975.00
2022-11-07T03:06:03.064Z,975.03
2022-11-07T03:07:03.224Z,975.11
2022-11-07T03:08:03.334Z,974.97
2022-11-07T03:09:03.397Z,975.14
2022-11-07T03:10:03.429Z,975.05
2022-11-07T03:11:03.532Z,975.00
2022-11-07T03:12:03.600Z,975.17
2022-11-07T03:13:03.609Z,975.14
2022-11-07T03:14:03.610Z,975.14
2022-11-07T03:15:03.893Z,975.17
2022-11-07T03:16:03.720Z,974.97
2022-11-07T03:17:03.040Z,975.03
2022-11-07T03:18:02.889Z,975.11
2022-11-07T03:19:03.004Z,975.20
2022-11-07T03:20:02.938Z,975.14
2022-11-07T03:21:03.045Z,975.14
2022-11-07T03:22:03.046Z,975.05
2022-11-07T03:23:03.029Z,975.17
2022-11-07T03:24:03.098Z,975.20
2022-11-07T03:25:03.144Z,975.25
2022-11-07T03:26:03.248Z,975.05
2022-11-07T03:27:03.371Z,975.23
2022-11-07T03:28:03.056Z,975.17
2022-11-07T03:29:03.094Z,975.11
2022-11-07T03:30:03.131Z,975.17
2022-11-07T03:31:03.304Z,975.28
2022-11-07T03:32:03.340Z,975.33
2022-11-07T03:33:03.312Z,975.25
2022-11-07T03:34:03.338Z,975.28
2022-11-07T03:35:03.415Z,975.36
2022-11-07T03:36:03.433Z,975.36
2022-11-07T03:37:03.580Z,975.39
2022-11-07T03:38:03.659Z,975.28
2022-11-07T03:39:03.628Z,975.31
2022-11-07T03:40:03.553Z,975.23
2022-11-07T03:41:03.606Z,975.20
2022-11-07T03:42:03.569Z,975.17
2022-11-07T03:43:03.610Z,975.20
2022-11-07T03:44:03.652Z,975.20
2022-11-07T03:45:03.658Z,975.33
2022-11-07T03:46:03.667Z,975.28
2022-11-07T03:47:03.698Z,975.11
2022-11-07T03:48:03.687Z,975.33
2022-11-07T03:49:03.756Z,975.20
2022-11-07T03:50:03.897Z,975.09
2022-11-07T03:51:03.941Z,975.17
2022-11-07T03:52:03.835Z,975.23
2022-11-07T03:53:02.917Z,975.41
2022-11-07T03:54:02.900Z,975.11
2022-11-07T03:55:03.034Z,975.23
2022-11-07T03:56:03.107Z,975.25
2022-11-07T03:57:03.032Z,975.36
2022-11-07T03:58:03.046Z,975.03
2022-11-07T03:59:03.069Z,975.23
2022-11-07T04:00:03.137Z,975.31
2022-11-07T04:01:03.179Z,975.23
2022-11-07T04:02:03.512Z,975.33
2022-11-07T04:03:03.397Z,975.31
2022-11-07T04:04:03.367Z,975.28
2022-11-07T04:05:03.504Z,975.17
2022-11-07T04:06:03.453Z,975.36
2022-11-07T04:07:03.615Z,975.44
2022-11-07T04:08:03.514Z,975.36
2022-11-07T04:09:03.575Z,975.50
2022-11-07T04:10:03.745Z,975.38
2022-11-07T04:11:03.739Z,975.33
2022-11-07T04:12:03.778Z,975.50
2022-11-07T04:13:03.851Z,975.44
2022-11-07T04:14:03.014Z,975.47
2022-11-07T04:15:03.080Z,975.53
2022-11-07T04:16:03.128Z,975.50
2022-11-07T04:17:03.291Z,975.33
2022-11-07T04:18:03.307Z,975.50
2022-11-07T04:19:03.231Z,975.50
2022-11-07T04:20:03.283Z,975.50
2022-11-07T04:21:03.426Z,975.44
2022-11-07T04:22:03.381Z,975.67
2022-11-07T04:23:03.406Z,975.67
2022-11-07T04:24:03.464Z,975.64
2022-11-07T04:25:03.560Z,975.64
2022-11-07T04:26:03.608Z,975.61
2022-11-07T04:27:03.576Z,975.67
2022-11-07T04:28:03.618Z,975.67
2022-11-07T04:29:03.658Z,975.55
2022-11-07T04:30:03.639Z,975.61
2022-11-07T04:31:03.821Z,975.69
2022-11-07T04:32:03.828Z,975.61
2022-11-07T04:33:03.835Z,975.66
2022-11-07T04:34:03.054Z,975.75
2022-11-07T04:35:03.138Z,975.52
2022-11-07T04:36:03.139Z,975.66
2022-11-07T04:37:03.224Z,975.66
2022-11-07T04:38:03.315Z,975.63
2022-11-07T04:39:03.321Z,975.60
2022-11-07T04:40:03.349Z,975.57
2022-11-07T04:41:03.356Z,975.66
2022-11-07T04:42:03.437Z,975.63
2022-11-07T04:43:03.585Z,975.63
2022-11-07T04:44:03.581Z,975.57
2022-11-07T04:45:03.603Z,975.65
2022-11-07T04:46:03.734Z,975.57
2022-11-07T04:47:03.722Z,975.51
2022-11-07T04:48:03.810Z,975.54
2022-11-07T04:49:03.771Z,975.65
2022-11-07T04:50:03.892Z,975.56
2022-11-07T04:51:03.860Z,975.54
2022-11-07T04:52:02.980Z,975.68
2022-11-07T04:53:03.077Z,975.54
2022-11-07T04:54:03.028Z,975.54
2022-11-07T04:55:02.998Z,975.59
2022-11-07T04:56:03.041Z,975.59
2022-11-07T04:57:03.074Z,975.56
2022-11-07T04:58:03.193Z,975.59
2022-11-07T04:59:03.139Z,975.54
2022-11-07T05:00:03.211Z,975.65
2022-11-07T05:01:03.308Z,975.59
2022-11-07T05:02:03.635Z,975.42
2022-11-07T05:03:03.429Z,975.71
2022-11-07T05:04:03.382Z,975.59
2022-11-07T05:05:03.164Z,975.57
2022-11-07T05:06:03.272Z,975.54
2022-11-07T05:07:03.445Z,975.74
2022-11-07T05:08:03.357Z,975.62
2022-11-07T05:09:03.510Z,975.85
2022-11-07T05:10:09.638Z,975.65
2022-11-07T05:11:03.616Z,975.68
2022-11-07T05:12:03.602Z,975.57
2022-11-07T05:13:03.654Z,975.71
2022-11-07T05:14:03.622Z,975.80
2022-11-07T05:15:02.964Z,975.71
2022-11-07T05:16:02.897Z,975.68
2022-11-07T05:17:03.183Z,975.68
2022-11-07T05:18:03.184Z,975.74
2022-11-07T05:19:03.292Z,975.68
2022-11-07T05:20:03.187Z,975.71
2022-11-07T05:21:03.366Z,975.77
2022-11-07T05:22:03.384Z,975.97
2022-11-07T05:23:03.386Z,975.77
2022-11-07T05:24:03.387Z,975.74
2022-11-07T05:25:03.653Z,975.77
2022-11-07T05:26:03.586Z,975.85
2022-11-07T05:27:03.729Z,975.77
2022-11-07T05:28:03.871Z,975.85
2022-11-07T05:29:03.050Z,975.83
2022-11-07T05:30:03.002Z,975.94
2022-11-07T05:31:03.175Z,975.99
2022-11-07T05:32:03.114Z,975.85
2022-11-07T05:33:03.253Z,975.99
2022-11-07T05:34:03.342Z,975.97
2022-11-07T05:35:03.397Z,975.97
2022-11-07T05:36:03.542Z,975.91
2022-11-07T05:37:03.591Z,976.05
2022-11-07T05:38:03.462Z,976.13
2022-11-07T05:39:03.580Z,975.94
2022-11-07T05:40:03.684Z,976.13
2022-11-07T05:41:03.825Z,976.02
2022-11-07T05:42:03.804Z,976.16
2022-11-07T05:43:03.088Z,976.13
2022-11-07T05:44:03.063Z,976.10
2022-11-07T05:45:03.079Z,976.16
2022-11-07T05:46:03.134Z,976.10
2022-11-07T05:47:03.232Z,976.13
2022-11-07T05:48:03.374Z,976.16
2022-11-07T05:49:03.435Z,976.05
2022-11-07T05:50:03.435Z,976.05
2022-11-07T05:51:03.556Z,976.13
2022-11-07T05:52:03.606Z,976.10
2022-11-07T05:53:03.884Z,976.10
2022-11-07T05:54:03.697Z,976.10
2022-11-07T05:55:03.761Z,976.04
2022-11-07T05:56:03.806Z,976.16
2022-11-07T05:57:03.788Z,976.04
2022-11-07T05:58:07.410Z,976.04
2022-11-07T05:59:03.854Z,976.07
2022-11-07T06:00:03.046Z,976.32
2022-11-07T06:01:03.053Z,976.21
2022-11-07T06:02:03.381Z,976.09
2022-11-07T06:03:03.273Z,976.12
2022-11-07T06:04:03.253Z,976.26
2022-11-07T06:05:03.281Z,976.20
2022-11-07T06:06:03.252Z,976.09
2022-11-07T06:07:03.397Z,976.09
2022-11-07T06:08:03.714Z,976.12
2022-11-07T06:09:03.812Z,976.09
2022-11-07T06:10:03.823Z,976.12
2022-11-07T06:11:03.791Z,975.98
2022-11-07T06:12:03.791Z,976.00
2022-11-07T06:13:03.848Z,975.92
2022-11-07T06:14:03.024Z,975.98
2022-11-07T06:15:03.098Z,976.09
2022-11-07T06:16:03.039Z,976.23
2022-11-07T06:17:03.963Z,976.12
2022-11-07T06:18:02.973Z,976.06
2022-11-07T06:19:02.923Z,976.09
2022-11-07T06:20:03.571Z,976.09
2022-11-07T06:21:03.502Z,976.14
2022-11-07T06:22:03.610Z,976.20
2022-11-07T06:23:03.643Z,976.11
2022-11-07T06:24:04.033Z,976.06
2022-11-07T06:25:03.604Z,976.11
2022-11-07T06:26:03.740Z,976.08
2022-11-07T06:27:03.795Z,976.08
2022-11-07T06:28:03.818Z,976.14
2022-11-07T06:29:03.923Z,976.00
2022-11-07T06:30:03.051Z,976.14
2022-11-07T06:31:03.009Z,976.11
2022-11-07T06:32:03.425Z,976.28
2022-11-07T06:33:03.400Z,976.16
2022-11-07T06:34:03.407Z,976.19
2022-11-07T06:35:03.599Z,976.27
2022-11-07T06:36:03.610Z,976.13
2022-11-07T06:37:03.992Z,976.21
2022-11-07T06:38:03.832Z,976.04
2022-11-07T06:39:03.856Z,976.13
2022-11-07T06:40:03.914Z,976.13
2022-11-07T06:41:02.961Z,976.18
2022-11-07T06:42:03.007Z,976.24
2022-11-07T06:43:03.113Z,976.27
2022-11-07T06:44:03.243Z,976.18
2022-11-07T06:45:03.199Z,976.24
2022-11-07T06:46:03.301Z,976.18
2022-11-07T06:47:03.490Z,976.38
2022-11-07T06:48:03.575Z,976.20
2022-11-07T06:49:03.372Z,976.20
2022-11-07T06:50:03.299Z,976.20
2022-11-07T06:51:03.340Z,976.32
2022-11-07T06:52:03.406Z,976.26
2022-11-07T06:53:03.387Z,976.26
2022-11-07T06:54:03.364Z,976.46
2022-11-07T06:55:03.664Z,976.40
2022-11-07T06:56:03.530Z,976.29
2022-11-07T06:57:03.618Z,976.34
2022-11-07T06:58:03.584Z,976.31
2022-11-07T06:59:03.748Z,976.43
2022-11-07T07:00:04.000Z,976.23
2022-11-07T07:01:03.170Z,976.37
2022-11-07T07:02:03.129Z,976.51
2022-11-07T07:03:03.392Z,976.48
2022-11-07T07:04:03.131Z,976.48
2022-11-07T07:05:03.411Z,976.54
2022-11-07T07:06:03.039Z,976.51
2022-11-07T07:07:03.102Z,976.42
2022-11-07T07:08:03.196Z,976.45
2022-11-07T07:09:03.181Z,976.42
2022-11-07T07:10:03.188Z,976.45
2022-11-07T07:11:03.397Z,976.37
2022-11-07T07:12:03.248Z,976.39
2022-11-07T07:13:03.470Z,976.37
2022-11-07T07:14:08.764Z,976.22
2022-11-07T07:15:03.554Z,976.34
2022-11-07T07:16:03.520Z,976.45
2022-11-07T07:17:03.601Z,976.33
2022-11-07T07:18:03.624Z,976.39
2022-11-07T07:19:03.875Z,976.39
2022-11-07T07:20:04.917Z,976.45
2022-11-07T07:21:02.989Z,976.36
2022-11-07T07:22:03.192Z,976.28
2022-11-07T07:23:06.296Z,976.28
2022-11-07T07:24:03.385Z,976.31
2022-11-07T07:25:03.351Z,976.39
2022-11-07T07:26:03.380Z,976.36
2022-11-07T07:27:03.488Z,976.47
2022-11-07T07:28:03.657Z,976.62
2022-11-07T07:29:03.623Z,976.64
2022-11-07T07:30:03.558Z,976.73
2022-11-07T07:31:03.662Z,976.61
2022-11-07T07:32:03.662Z,976.73
2022-11-07T07:33:03.807Z,976.77
2022-11-07T07:34:03.814Z,976.74
2022-11-07T07:35:03.882Z,976.67
2022-11-07T07:36:03.790Z,976.61
2022-11-07T07:37:03.861Z,976.61
2022-11-07T07:38:02.970Z,976.60
2022-11-07T07:39:03.130Z,976.63
2022-11-07T07:40:03.124Z,976.52
2022-11-07T07:41:03.274Z,976.54
2022-11-07T07:42:03.286Z,976.60
2022-11-07T07:43:03.787Z,976.62
2022-11-07T07:44:03.472Z,976.57
2022-11-07T07:45:03.535Z,976.68
2022-11-07T07:46:03.357Z,976.56
2022-11-07T07:47:11.375Z,976.50
2022-11-07T07:48:03.498Z,976.48
2022-11-07T07:49:03.404Z,976.56
2022-11-07T07:50:03.437Z,976.50
2022-11-07T07:51:03.456Z,976.61
2022-11-07T07:52:03.563Z,976.53
2022-11-07T07:53:09.505Z,976.52
2022-11-07T07:54:03.647Z,976.52
2022-11-07T07:55:03.761Z,976.55
2022-11-07T07:56:03.836Z,976.49
2022-11-07T07:57:03.939Z,976.60
2022-11-07T07:58:02.977Z,976.52
2022-11-07T07:59:02.936Z,976.63
2022-11-07T08:00:03.111Z,976.71
2022-11-07T08:01:03.418Z,976.71
2022-11-07T08:02:03.415Z,976.74
2022-11-07T08:03:03.238Z,976.68
2022-11-07T08:04:03.584Z,976.71
2022-11-07T08:05:03.212Z,976.79
2022-11-07T08:06:03.264Z,976.74
2022-11-07T08:07:03.197Z,976.79
2022-11-07T08:08:03.685Z,976.74
2022-11-07T08:09:03.749Z,976.84
2022-11-07T08:10:41.823Z,976.79
2022-11-07T08:11:03.121Z,976.79
2022-11-07T08:12:03.048Z,976.76
2022-11-07T08:13:03.025Z,976.82
2022-11-07T08:14:03.061Z,976.74
2022-11-07T08:15:03.068Z,976.74
2022-11-07T08:16:03.135Z,976.81
2022-11-07T08:17:03.078Z,976.93
2022-11-07T08:18:03.246Z,976.78
2022-11-07T08:19:03.279Z,976.81
2022-11-07T08:20:03.295Z,976.68
2022-11-07T08:21:03.437Z,976.81
2022-11-07T08:22:03.389Z,976.81
2022-11-07T08:23:03.360Z,976.68
2022-11-07T08:24:03.284Z,976.75
2022-11-07T08:25:03.428Z,976.70
2022-11-07T08:26:03.574Z,976.86
2022-11-07T08:27:03.487Z,976.83
2022-11-07T08:28:03.474Z,976.92
2022-11-07T08:29:03.412Z,976.95
2022-11-07T08:30:03.477Z,976.86
2022-11-07T08:31:03.498Z,976.86
2022-11-07T08:32:03.617Z,976.80
2022-11-07T08:33:03.586Z,976.98
2022-11-07T08:34:03.977Z,977.03
2022-11-07T08:35:03.801Z,977.00
2022-11-07T08:36:03.904Z,976.91
2022-11-07T08:37:02.957Z,977.00
2022-11-07T08:38:02.920Z,977.03
2022-11-07T08:39:02.924Z,977.00
2022-11-07T08:40:03.033Z,976.82
2022-11-07T08:41:03.076Z,976.94
2022-11-07T08:42:03.003Z,977.02
2022-11-07T08:43:03.039Z,977.19
2022-11-07T08:44:03.067Z,976.93
2022-11-07T08:45:03.111Z,976.96
2022-11-07T08:46:03.896Z,976.98
2022-11-07T08:47:08.850Z,976.98
2022-11-07T08:48:04.356Z,977.18
2022-11-07T08:49:03.817Z,976.95
2022-11-07T08:50:03.766Z,976.98
2022-11-07T08:51:02.926Z,976.98
2022-11-07T08:52:03.026Z,977.00
2022-11-07T08:53:03.676Z,977.03
2022-11-07T08:54:03.124Z,977.08
2022-11-07T08:55:03.220Z,977.00
2022-11-07T08:56:03.091Z,977.08
2022-11-07T08:57:03.228Z,977.05
2022-11-07T08:58:03.168Z,977.05
2022-11-07T08:59:03.077Z,977.02
2022-11-07T09:00:03.123Z,977.07
2022-11-07T09:01:03.329Z,976.99
2022-11-07T09:03:18.236Z,977.04
2022-11-07T09:03:46.528Z,977.13
2022-11-07T09:04:03.893Z,977.18
2022-11-07T09:05:03.610Z,977.15
2022-11-07T09:06:03.623Z,977.10
2022-11-07T09:07:03.695Z,977.15
2022-11-07T09:08:03.793Z,977.18
2022-11-07T09:09:03.860Z,977.32
2022-11-07T09:10:03.819Z,977.32
2022-11-07T09:11:02.934Z,977.23
2022-11-07T09:12:02.915Z,977.32
2022-11-07T09:13:02.998Z,977.26
2022-11-07T09:14:03.188Z,977.17
2022-11-07T09:15:03.252Z,977.26
2022-11-07T09:16:03.283Z,977.29
2022-11-07T09:17:03.346Z,977.28
2022-11-07T09:18:03.375Z,977.28
2022-11-07T09:19:03.410Z,977.37
2022-11-07T09:20:03.409Z,977.34
2022-11-07T09:21:03.674Z,977.37
2022-11-07T09:22:03.586Z,977.37
2022-11-07T09:23:03.692Z,977.40
2022-11-07T09:24:04.061Z,977.42
2022-11-07T09:25:03.933Z,977.39
2022-11-07T09:26:03.066Z,977.39
2022-11-07T09:27:03.275Z,977.59
2022-11-07T09:28:03.114Z,977.39
2022-11-07T09:29:03.218Z,977.51
2022-11-07T09:30:03.220Z,977.50
2022-11-07T09:31:03.278Z,977.45
2022-11-07T09:32:44.227Z,977.50
2022-11-07T09:33:03.755Z,977.47
2022-11-07T09:34:03.743Z,977.47
2022-11-07T09:35:05.600Z,977.44
2022-11-07T09:36:03.888Z,977.66
2022-11-07T09:37:03.859Z,977.50
2022-11-07T09:38:02.970Z,977.53
2022-11-07T09:39:03.455Z,977.56
2022-11-07T09:40:03.357Z,977.66
2022-11-07T09:41:03.298Z,977.69
2022-11-07T09:42:03.581Z,977.66
2022-11-07T09:43:03.490Z,977.77
2022-11-07T09:44:05.262Z,977.66
2022-11-07T09:45:03.605Z,977.61
2022-11-07T09:46:03.588Z,977.61
2022-11-07T09:47:03.542Z,977.77
2022-11-07T09:48:03.565Z,977.74
2022-11-07T09:49:03.619Z,977.80
2022-11-07T09:50:03.619Z,977.74
2022-11-07T09:51:03.684Z,977.74
2022-11-07T09:52:03.710Z,977.66
2022-11-07T09:53:03.645Z,977.83
2022-11-07T09:54:03.616Z,977.71
2022-11-07T09:55:03.626Z,977.68
2022-11-07T09:56:03.785Z,977.68
2022-11-07T09:57:03.867Z,977.61
2022-11-07T09:58:03.805Z,977.65
2022-11-07T09:59:03.824Z,977.65
2022-11-07T10:00:03.939Z,977.57
2022-11-07T10:01:03.920Z,977.65
2022-11-07T10:02:03.942Z,977.68
2022-11-07T10:03:03.893Z,977.68
2022-11-07T10:04:26.382Z,977.65
2022-11-07T10:05:03.400Z,977.60
2022-11-07T10:06:03.288Z,977.67
2022-11-07T10:07:03.352Z,977.67
2022-11-07T10:08:03.209Z,977.60
2022-11-07T10:09:03.261Z,977.79
2022-11-07T10:10:03.285Z,977.76
2022-11-07T10:11:03.421Z,977.62
2022-11-07T10:12:03.353Z,977.73
2022-11-07T10:13:06.130Z,977.59
2022-11-07T10:14:03.199Z,977.59
2022-11-07T10:15:03.327Z,977.72
2022-11-07T10:16:03.315Z,977.81
2022-11-07T10:17:03.284Z,977.78
2022-11-07T10:18:03.322Z,977.66
2022-11-07T10:19:03.327Z,977.72
2022-11-07T10:20:03.409Z,977.78
2022-11-07T10:21:37.936Z,977.72
2022-11-07T10:22:03.356Z,977.80
2022-11-07T10:23:03.641Z,977.58
2022-11-07T10:24:03.564Z,977.80
2022-11-07T10:25:03.485Z,977.83
2022-11-07T10:26:03.706Z,977.77
2022-11-07T10:27:03.246Z,977.77
2022-11-07T10:28:03.325Z,977.80
2022-11-07T10:29:03.305Z,977.83
2022-11-07T10:30:03.319Z,977.94
2022-11-07T10:31:03.407Z,977.94
2022-11-07T10:32:03.394Z,977.88
2022-11-07T10:33:03.478Z,978.00
2022-11-07T10:34:03.505Z,977.80
2022-11-07T10:35:03.459Z,977.94
2022-11-07T10:36:03.582Z,977.83
2022-11-07T10:37:03.588Z,977.77
2022-11-07T10:38:03.269Z,977.91
2022-11-07T10:39:03.457Z,977.77
2022-11-07T10:40:11.027Z,977.74
2022-11-07T10:41:03.446Z,977.83
2022-11-07T10:42:03.469Z,977.74
2022-11-07T10:43:03.474Z,977.77
2022-11-07T10:44:03.626Z,977.68
2022-11-07T10:45:03.726Z,977.66
2022-11-07T10:46:03.787Z,977.68
2022-11-07T10:47:03.798Z,977.66
2022-11-07T10:48:03.171Z,977.61
2022-11-07T10:49:02.962Z,977.66
2022-11-07T10:50:03.711Z,977.74
2022-11-07T10:51:03.730Z,977.72
2022-11-07T10:52:03.923Z,977.66
2022-11-07T10:53:03.983Z,977.66
2022-11-07T10:54:02.943Z,977.66
2022-11-07T10:55:03.076Z,977.72
2022-11-07T10:56:03.061Z,977.61
2022-11-07T10:57:03.178Z,977.83
2022-11-07T10:58:03.303Z,977.69
2022-11-07T10:59:03.222Z,977.80
2022-11-07T11:00:03.246Z,977.78
2022-11-07T11:01:03.603Z,977.81
2022-11-07T11:02:03.473Z,977.69
2022-11-07T11:03:03.599Z,977.80
2022-11-07T11:04:03.517Z,977.78
2022-11-07T11:05:03.670Z,977.72
2022-11-07T11:06:03.765Z,977.72
2022-11-07T11:07:03.783Z,977.69
2022-11-07T11:08:03.852Z,977.72
2022-11-07T11:09:03.873Z,977.69
2022-11-07T11:10:02.927Z,977.59
2022-11-07T11:11:02.964Z,977.59
2022-11-07T11:12:03.131Z,977.72
2022-11-07T11:13:03.215Z,977.69
2022-11-07T11:14:03.166Z,977.61
2022-11-07T11:15:03.273Z,977.66
2022-11-07T11:16:06.094Z,977.69
2022-11-07T11:17:03.572Z,977.61
2022-11-07T11:18:03.329Z,977.61
2022-11-07T11:19:03.364Z,977.66
2022-11-07T11:20:03.395Z,977.69
2022-11-07T11:21:03.454Z,977.69
2022-11-07T11:22:09.828Z,977.61
2022-11-07T11:23:03.460Z,977.41
2022-11-07T11:24:03.507Z,977.50
2022-11-07T11:25:03.618Z,977.66
2022-11-07T11:26:03.682Z,977.78
2022-11-07T11:27:03.952Z,977.66
2022-11-07T11:28:03.130Z,977.47
2022-11-07T11:29:02.939Z,977.53
2022-11-07T11:30:03.235Z,977.47
2022-11-07T11:31:03.346Z,977.66
2022-11-07T11:32:03.670Z,977.58
2022-11-07T11:33:03.733Z,977.61
2022-11-07T11:34:03.688Z,977.52
2022-11-07T11:35:03.894Z,977.52
2022-11-07T11:36:02.983Z,977.58
2022-11-07T11:37:03.071Z,977.52
2022-11-07T11:38:03.426Z,977.55
2022-11-07T11:39:03.644Z,977.55
2022-11-07T11:40:03.556Z,977.49
2022-11-07T11:41:11.062Z,977.55
2022-11-07T11:42:03.824Z,977.66
2022-11-07T11:43:03.859Z,977.55
2022-11-07T11:44:03.935Z,977.58
2022-11-07T11:45:02.926Z,977.52
2022-11-07T11:46:03.050Z,977.52
2022-11-07T11:47:03.310Z,977.68
2022-11-07T11:48:03.247Z,977.71
2022-11-07T11:49:03.391Z,977.60
2022-11-07T11:50:03.407Z,977.60
2022-11-07T11:51:03.475Z,977.57
2022-11-07T11:52:03.479Z,977.52
2022-11-07T11:53:03.504Z,977.68
2022-11-07T11:54:03.492Z,977.54
2022-11-07T11:55:03.551Z,977.46
2022-11-07T11:56:03.605Z,977.37
2022-11-07T11:57:03.695Z,977.51
2022-11-07T11:58:03.652Z,977.57
2022-11-07T11:59:03.818Z,977.65
2022-11-07T12:00:03.836Z,977.65
2022-11-07T12:01:03.822Z,977.51
2022-11-07T12:02:04.029Z,977.65
2022-11-07T12:03:03.895Z,977.57
2022-11-07T12:04:08.421Z,977.68
2022-11-07T12:05:03.984Z,977.71
2022-11-07T12:06:04.037Z,977.54
2022-11-07T12:07:03.876Z,977.68
2022-11-07T12:08:03.893Z,977.49
2022-11-07T12:09:03.055Z,977.65
2022-11-07T12:10:03.087Z,977.68
2022-11-07T12:11:03.125Z,977.57
2022-11-07T12:12:03.229Z,977.76
2022-11-07T12:13:03.335Z,977.54
2022-11-07T12:14:03.521Z,977.76
2022-11-07T12:15:03.442Z,977.73
2022-11-07T12:16:03.535Z,977.76
2022-11-07T12:17:03.365Z,977.65
2022-11-07T12:18:03.421Z,977.73
2022-11-07T12:19:03.563Z,977.79
2022-11-07T12:20:03.491Z,977.70
2022-11-07T12:21:03.666Z,977.68
2022-11-07T12:22:03.720Z,977.73
2022-11-07T12:23:03.640Z,977.60
2022-11-07T12:24:03.777Z,977.67
2022-11-07T12:25:03.803Z,977.65
2022-11-07T12:26:03.860Z,977.70
2022-11-07T12:27:02.983Z,977.76
2022-11-07T12:28:02.989Z,977.96